メインページ
METAR-TAF:

METAR-TAF

空港 :

ヴァーツラフ・ハヴェル・プラハ国際空港

プラハ, チェコ共和国

緯度: 50-06N, 経度: 014-15E, 海抜: 365m

現時点の気象観測

当レポートは24分前の22:00(UTC)に作成
西の風 10kt
気温 1°C
湿度 93%
気圧 1016 hPa
視程10km以上
高度1500ftの雲はほとんどない
高度2500ftの千切れ雲あり
高度4800ftの曇り
小雨

METAR: LKPR 112200Z 28010KT 9999 -RA FEW015 BKN025 OVC048 01/00 Q1016 NOSIG

時間: 23:24 (22:24 UTC)

予報

当レポートは5時間24分前の17:00(UTC)に作成
予報は11日の 18時(UTC)から 13日の 00時(UTC)まで有効
西/北西の風 8kt
視程10km以上
高度2500ftの千切れ雲あり
11日の 18時(UTC)から 12日の 18時(UTC)まで一時的に
西/北西の風 16kt、最大26ktの突風を伴う
視程: 5000m
高度1400ftの千切れ雲あり
小雨, 雪
確率 30% :
11日の 18時(UTC)から 12日の 06時(UTC)まで一時的に
視程: 2500m
高度500ftの千切れ雲あり

TAF: LKPR 111700Z 1118/1300 30008KT 9999 BKN025 TEMPO 1118/1218 30016G26KT 5000 -RASN BKN014 PROB30 TEMPO 1118/1206 2500 SN BKN005

4,000以上の空港の気象観測と天気予報(METAR報とTAF報)

利用可能な観測所は地図上に黄色い丸と赤い丸で示す。

丸の上にカーソルを重ねると観測所名を参照できる。

次にクリックすると気象観測と天気予報を参照できる。

マップの切り替え:黒色「×」印の緑ボタンをクリックして拡大、「-」印の緑ボタンをクリックして縮小、緑色の三角印をクリックして隣りの地図に切り替え


METAR-TAF: